sensor_id;sensor_type;location;lat;lon;timestamp;temperature;humidity
68609;SHT31;55581;46.718;7.690;2022-11-20T00:01:14;4.30;84.90
68609;SHT31;55581;46.718;7.690;2022-11-20T00:03:40;4.29;84.96
68609;SHT31;55581;46.718;7.690;2022-11-20T00:06:09;4.19;85.13
68609;SHT31;55581;46.718;7.690;2022-11-20T00:08:35;4.16;84.80
68609;SHT31;55581;46.718;7.690;2022-11-20T00:11:12;4.15;84.68
68609;SHT31;55581;46.718;7.690;2022-11-20T00:13:38;4.20;84.31
68609;SHT31;55581;46.718;7.690;2022-11-20T00:16:06;4.23;84.61
68609;SHT31;55581;46.718;7.690;2022-11-20T00:18:33;4.26;84.61
68609;SHT31;55581;46.718;7.690;2022-11-20T00:21:04;4.26;84.51
68609;SHT31;55581;46.718;7.690;2022-11-20T00:23:30;4.23;85.26
68609;SHT31;55581;46.718;7.690;2022-11-20T00:25:55;4.26;84.91
68609;SHT31;55581;46.718;7.690;2022-11-20T00:28:21;4.33;85.26
68609;SHT31;55581;46.718;7.690;2022-11-20T00:30:48;4.30;84.70
68609;SHT31;55581;46.718;7.690;2022-11-20T00:33:13;4.36;84.65
68609;SHT31;55581;46.718;7.690;2022-11-20T00:35:42;4.34;84.50
68609;SHT31;55581;46.718;7.690;2022-11-20T00:38:10;4.40;83.92
68609;SHT31;55581;46.718;7.690;2022-11-20T00:40:35;4.36;83.79
68609;SHT31;55581;46.718;7.690;2022-11-20T00:43:00;4.28;83.61
68609;SHT31;55581;46.718;7.690;2022-11-20T00:45:26;4.26;84.07
68609;SHT31;55581;46.718;7.690;2022-11-20T00:47:53;4.30;84.08
68609;SHT31;55581;46.718;7.690;2022-11-20T00:50:20;4.33;84.96
68609;SHT31;55581;46.718;7.690;2022-11-20T00:52:45;4.36;84.35
68609;SHT31;55581;46.718;7.690;2022-11-20T00:55:13;4.46;84.11
68609;SHT31;55581;46.718;7.690;2022-11-20T00:57:39;4.52;83.82
68609;SHT31;55581;46.718;7.690;2022-11-20T01:00:05;4.57;83.81
68609;SHT31;55581;46.718;7.690;2022-11-20T01:02:30;4.60;83.18
68609;SHT31;55581;46.718;7.690;2022-11-20T01:04:58;4.63;82.73
68609;SHT31;55581;46.718;7.690;2022-11-20T01:07:23;4.64;83.36
68609;SHT31;55581;46.718;7.690;2022-11-20T01:09:49;4.75;81.81
68609;SHT31;55581;46.718;7.690;2022-11-20T01:12:14;4.78;81.88
68609;SHT31;55581;46.718;7.690;2022-11-20T01:14:39;4.78;81.91
68609;SHT31;55581;46.718;7.690;2022-11-20T01:17:05;4.84;81.24
68609;SHT31;55581;46.718;7.690;2022-11-20T01:19:33;4.84;81.79
68609;SHT31;55581;46.718;7.690;2022-11-20T01:21:59;4.89;81.55
68609;SHT31;55581;46.718;7.690;2022-11-20T01:24:24;4.93;81.93
68609;SHT31;55581;46.718;7.690;2022-11-20T01:26:51;4.95;81.17
68609;SHT31;55581;46.718;7.690;2022-11-20T01:29:22;4.96;80.76
68609;SHT31;55581;46.718;7.690;2022-11-20T01:31:47;4.99;82.28
68609;SHT31;55581;46.718;7.690;2022-11-20T01:34:18;4.96;81.59
68609;SHT31;55581;46.718;7.690;2022-11-20T01:36:45;5.01;79.81
68609;SHT31;55581;46.718;7.690;2022-11-20T01:39:16;5.05;80.79
68609;SHT31;55581;46.718;7.690;2022-11-20T01:41:46;5.11;81.14
68609;SHT31;55581;46.718;7.690;2022-11-20T01:44:59;5.20;79.04
68609;SHT31;55581;46.718;7.690;2022-11-20T01:47:45;5.29;78.47
68609;SHT31;55581;46.718;7.690;2022-11-20T01:50:26;5.39;76.87
68609;SHT31;55581;46.718;7.690;2022-11-20T01:52:56;5.46;76.04
68609;SHT31;55581;46.718;7.690;2022-11-20T01:55:28;5.51;76.16
68609;SHT31;55581;46.718;7.690;2022-11-20T01:57:56;5.48;77.19
68609;SHT31;55581;46.718;7.690;2022-11-20T02:00:21;5.40;79.19
68609;SHT31;55581;46.718;7.690;2022-11-20T02:02:51;5.40;81.28
68609;SHT31;55581;46.718;7.690;2022-11-20T02:08:19;5.48;80.67
68609;SHT31;55581;46.718;7.690;2022-11-20T02:10:45;5.48;80.42
68609;SHT31;55581;46.718;7.690;2022-11-20T02:13:10;5.43;80.75
68609;SHT31;55581;46.718;7.690;2022-11-20T02:15:54;5.43;81.29
68609;SHT31;55581;46.718;7.690;2022-11-20T02:18:21;5.42;81.86
68609;SHT31;55581;46.718;7.690;2022-11-20T02:20:49;5.46;81.82
68609;SHT31;55581;46.718;7.690;2022-11-20T02:24:25;5.43;82.07
68609;SHT31;55581;46.718;7.690;2022-11-20T02:26:20;5.36;82.46
68609;SHT31;55581;46.718;7.690;2022-11-20T02:28:47;5.40;82.55
68609;SHT31;55581;46.718;7.690;2022-11-20T02:31:13;5.39;81.90
68609;SHT31;55581;46.718;7.690;2022-11-20T02:33:38;5.29;82.51
68609;SHT31;55581;46.718;7.690;2022-11-20T02:36:04;5.27;83.17
68609;SHT31;55581;46.718;7.690;2022-11-20T02:38:29;5.30;82.41
68609;SHT31;55581;46.718;7.690;2022-11-20T02:40:55;5.32;82.39
68609;SHT31;55581;46.718;7.690;2022-11-20T02:43:20;5.32;83.12
68609;SHT31;55581;46.718;7.690;2022-11-20T02:45:45;5.30;83.45
68609;SHT31;55581;46.718;7.690;2022-11-20T02:48:11;5.33;83.19
68609;SHT31;55581;46.718;7.690;2022-11-20T02:50:38;5.37;83.69
68609;SHT31;55581;46.718;7.690;2022-11-20T02:53:06;5.39;83.69
68609;SHT31;55581;46.718;7.690;2022-11-20T02:55:31;5.27;83.00
68609;SHT31;55581;46.718;7.690;2022-11-20T02:57:57;5.22;83.39
68609;SHT31;55581;46.718;7.690;2022-11-20T03:00:22;5.22;83.65
68609;SHT31;55581;46.718;7.690;2022-11-20T03:02:47;4.99;83.99
68609;SHT31;55581;46.718;7.690;2022-11-20T03:05:13;5.01;83.88
68609;SHT31;55581;46.718;7.690;2022-11-20T03:07:38;4.93;83.53
68609;SHT31;55581;46.718;7.690;2022-11-20T03:10:05;4.95;83.03
68609;SHT31;55581;46.718;7.690;2022-11-20T03:12:30;4.87;83.12
68609;SHT31;55581;46.718;7.690;2022-11-20T03:14:56;4.85;83.52
68609;SHT31;55581;46.718;7.690;2022-11-20T03:17:21;4.80;84.29
68609;SHT31;55581;46.718;7.690;2022-11-20T03:19:46;4.77;82.98
68609;SHT31;55581;46.718;7.690;2022-11-20T03:22:12;4.74;82.90
68609;SHT31;55581;46.718;7.690;2022-11-20T03:24:37;4.80;83.05
68609;SHT31;55581;46.718;7.690;2022-11-20T03:27:03;4.81;83.13
68609;SHT31;55581;46.718;7.690;2022-11-20T03:29:28;4.81;83.88
68609;SHT31;55581;46.718;7.690;2022-11-20T03:31:54;4.80;83.78
68609;SHT31;55581;46.718;7.690;2022-11-20T03:34:19;4.71;83.74
68609;SHT31;55581;46.718;7.690;2022-11-20T03:36:44;4.68;83.64
68609;SHT31;55581;46.718;7.690;2022-11-20T03:39:10;4.65;83.41
68609;SHT31;55581;46.718;7.690;2022-11-20T03:41:37;4.70;83.70
68609;SHT31;55581;46.718;7.690;2022-11-20T03:44:06;4.71;83.81
68609;SHT31;55581;46.718;7.690;2022-11-20T03:46:34;4.64;83.10
68609;SHT31;55581;46.718;7.690;2022-11-20T03:49:02;4.64;83.29
68609;SHT31;55581;46.718;7.690;2022-11-20T03:51:33;4.54;83.54
68609;SHT31;55581;46.718;7.690;2022-11-20T03:54:01;4.64;82.97
68609;SHT31;55581;46.718;7.690;2022-11-20T03:56:29;4.56;81.86
68609;SHT31;55581;46.718;7.690;2022-11-20T03:58:57;4.52;82.33
68609;SHT31;55581;46.718;7.690;2022-11-20T04:01:25;4.52;82.22
68609;SHT31;55581;46.718;7.690;2022-11-20T04:03:52;4.47;82.18
68609;SHT31;55581;46.718;7.690;2022-11-20T04:06:22;4.54;82.73
68609;SHT31;55581;46.718;7.690;2022-11-20T04:08:48;4.57;81.27
68609;SHT31;55581;46.718;7.690;2022-11-20T04:11:22;4.61;81.53
68609;SHT31;55581;46.718;7.690;2022-11-20T04:13:57;4.67;79.22
68609;SHT31;55581;46.718;7.690;2022-11-20T04:16:24;4.68;81.21
68609;SHT31;55581;46.718;7.690;2022-11-20T04:18:54;4.71;80.84
68609;SHT31;55581;46.718;7.690;2022-11-20T04:21:23;4.64;81.12
68609;SHT31;55581;46.718;7.690;2022-11-20T04:23:49;4.63;81.29
68609;SHT31;55581;46.718;7.690;2022-11-20T04:26:18;4.67;81.13
68609;SHT31;55581;46.718;7.690;2022-11-20T04:28:43;4.64;81.55
68609;SHT31;55581;46.718;7.690;2022-11-20T04:31:15;4.64;80.47
68609;SHT31;55581;46.718;7.690;2022-11-20T04:33:41;4.65;79.48
68609;SHT31;55581;46.718;7.690;2022-11-20T04:36:18;4.68;76.92
68609;SHT31;55581;46.718;7.690;2022-11-20T04:38:44;4.77;78.73
68609;SHT31;55581;46.718;7.690;2022-11-20T04:41:14;4.67;78.81
68609;SHT31;55581;46.718;7.690;2022-11-20T04:43:40;4.78;79.39
68609;SHT31;55581;46.718;7.690;2022-11-20T04:46:05;4.80;80.85
68609;SHT31;55581;46.718;7.690;2022-11-20T04:48:31;4.81;79.71
68609;SHT31;55581;46.718;7.690;2022-11-20T04:50:57;4.85;78.22
68609;SHT31;55581;46.718;7.690;2022-11-20T04:53:23;4.84;77.53
68609;SHT31;55581;46.718;7.690;2022-11-20T04:55:48;4.84;78.95
68609;SHT31;55581;46.718;7.690;2022-11-20T04:58:14;4.84;79.51
68609;SHT31;55581;46.718;7.690;2022-11-20T05:00:40;4.77;79.96
68609;SHT31;55581;46.718;7.690;2022-11-20T05:03:06;4.82;79.98
68609;SHT31;55581;46.718;7.690;2022-11-20T05:05:34;4.87;77.93
68609;SHT31;55581;46.718;7.690;2022-11-20T05:07:59;4.85;78.90
68609;SHT31;55581;46.718;7.690;2022-11-20T05:10:25;4.87;78.27
68609;SHT31;55581;46.718;7.690;2022-11-20T05:12:51;4.89;79.12
68609;SHT31;55581;46.718;7.690;2022-11-20T05:15:16;4.96;77.54
68609;SHT31;55581;46.718;7.690;2022-11-20T05:17:47;5.04;74.87
68609;SHT31;55581;46.718;7.690;2022-11-20T05:20:12;5.05;75.15
68609;SHT31;55581;46.718;7.690;2022-11-20T05:22:41;5.11;74.97
68609;SHT31;55581;46.718;7.690;2022-11-20T05:25:09;5.07;76.43
68609;SHT31;55581;46.718;7.690;2022-11-20T05:27:35;4.99;77.94
68609;SHT31;55581;46.718;7.690;2022-11-20T05:30:00;4.89;78.28
68609;SHT31;55581;46.718;7.690;2022-11-20T05:32:25;4.88;79.01
68609;SHT31;55581;46.718;7.690;2022-11-20T05:34:52;4.96;78.06
68609;SHT31;55581;46.718;7.690;2022-11-20T05:37:17;5.02;78.11
68609;SHT31;55581;46.718;7.690;2022-11-20T05:39:42;5.13;75.62
68609;SHT31;55581;46.718;7.690;2022-11-20T05:42:08;5.11;77.37
68609;SHT31;55581;46.718;7.690;2022-11-20T05:44:52;5.02;77.38
68609;SHT31;55581;46.718;7.690;2022-11-20T05:47:19;5.01;77.54
68609;SHT31;55581;46.718;7.690;2022-11-20T05:49:45;4.95;78.18
68609;SHT31;55581;46.718;7.690;2022-11-20T05:52:12;4.96;78.03
68609;SHT31;55581;46.718;7.690;2022-11-20T05:54:38;4.91;78.28
68609;SHT31;55581;46.718;7.690;2022-11-20T05:57:04;4.96;76.36
68609;SHT31;55581;46.718;7.690;2022-11-20T05:59:29;4.93;77.39
68609;SHT31;55581;46.718;7.690;2022-11-20T06:01:57;4.96;77.81
68609;SHT31;55581;46.718;7.690;2022-11-20T06:04:23;5.04;78.16
68609;SHT31;55581;46.718;7.690;2022-11-20T06:06:48;5.07;75.94
68609;SHT31;55581;46.718;7.690;2022-11-20T06:09:13;5.13;76.11
68609;SHT31;55581;46.718;7.690;2022-11-20T06:11:39;5.25;74.73
68609;SHT31;55581;46.718;7.690;2022-11-20T06:14:04;5.25;76.58
68609;SHT31;55581;46.718;7.690;2022-11-20T06:16:30;5.35;71.17
68609;SHT31;55581;46.718;7.690;2022-11-20T06:18:55;5.33;72.64
68609;SHT31;55581;46.718;7.690;2022-11-20T06:21:22;5.33;72.93
68609;SHT31;55581;46.718;7.690;2022-11-20T06:23:51;5.30;71.69
68609;SHT31;55581;46.718;7.690;2022-11-20T06:26:22;5.29;72.40
68609;SHT31;55581;46.718;7.690;2022-11-20T06:28:48;5.33;72.23
68609;SHT31;55581;46.718;7.690;2022-11-20T06:31:16;5.32;71.75
68609;SHT31;55581;46.718;7.690;2022-11-20T06:33:43;5.32;72.34
68609;SHT31;55581;46.718;7.690;2022-11-20T06:36:10;5.36;72.95
68609;SHT31;55581;46.718;7.690;2022-11-20T06:38:36;5.35;73.54
68609;SHT31;55581;46.718;7.690;2022-11-20T06:41:03;5.36;71.55
68609;SHT31;55581;46.718;7.690;2022-11-20T06:43:29;5.39;71.70
68609;SHT31;55581;46.718;7.690;2022-11-20T06:45:58;5.40;70.88
68609;SHT31;55581;46.718;7.690;2022-11-20T06:48:26;5.32;72.40
68609;SHT31;55581;46.718;7.690;2022-11-20T06:50:52;5.30;71.40
68609;SHT31;55581;46.718;7.690;2022-11-20T06:53:18;5.44;69.92
68609;SHT31;55581;46.718;7.690;2022-11-20T06:55:45;5.40;69.10
68609;SHT31;55581;46.718;7.690;2022-11-20T06:58:16;5.47;68.65
68609;SHT31;55581;46.718;7.690;2022-11-20T07:00:42;5.53;69.16
68609;SHT31;55581;46.718;7.690;2022-11-20T07:03:09;5.47;69.90
68609;SHT31;55581;46.718;7.690;2022-11-20T07:05:35;5.46;70.42
68609;SHT31;55581;46.718;7.690;2022-11-20T07:08:02;5.48;70.35
68609;SHT31;55581;46.718;7.690;2022-11-20T07:10:29;5.48;70.37
68609;SHT31;55581;46.718;7.690;2022-11-20T07:12:54;5.51;69.75
68609;SHT31;55581;46.718;7.690;2022-11-20T07:15:21;5.53;70.21
68609;SHT31;55581;46.718;7.690;2022-11-20T07:17:47;5.54;70.86
68609;SHT31;55581;46.718;7.690;2022-11-20T07:20:13;5.56;72.45
68609;SHT31;55581;46.718;7.690;2022-11-20T07:22:39;5.57;71.50
68609;SHT31;55581;46.718;7.690;2022-11-20T07:25:05;5.64;72.18
68609;SHT31;55581;46.718;7.690;2022-11-20T07:27:30;5.64;71.36
68609;SHT31;55581;46.718;7.690;2022-11-20T07:29:58;5.64;71.31
68609;SHT31;55581;46.718;7.690;2022-11-20T07:32:24;5.68;71.71
68609;SHT31;55581;46.718;7.690;2022-11-20T07:34:49;5.71;72.61
68609;SHT31;55581;46.718;7.690;2022-11-20T07:37:15;5.68;72.53
68609;SHT31;55581;46.718;7.690;2022-11-20T07:39:40;5.71;72.10
68609;SHT31;55581;46.718;7.690;2022-11-20T07:42:06;5.70;72.59
68609;SHT31;55581;46.718;7.690;2022-11-20T07:44:32;5.68;72.07
68609;SHT31;55581;46.718;7.690;2022-11-20T07:46:58;5.75;73.73
68609;SHT31;55581;46.718;7.690;2022-11-20T07:49:23;5.73;75.70
68609;SHT31;55581;46.718;7.690;2022-11-20T07:51:52;5.70;75.37
68609;SHT31;55581;46.718;7.690;2022-11-20T07:54:21;5.73;73.87
68609;SHT31;55581;46.718;7.690;2022-11-20T07:56:47;5.61;74.59
68609;SHT31;55581;46.718;7.690;2022-11-20T07:59:12;5.63;75.99
68609;SHT31;55581;46.718;7.690;2022-11-20T08:01:40;5.70;76.18
68609;SHT31;55581;46.718;7.690;2022-11-20T08:04:06;5.64;75.83
68609;SHT31;55581;46.718;7.690;2022-11-20T08:06:31;5.70;76.46
68609;SHT31;55581;46.718;7.690;2022-11-20T08:09:00;5.68;77.00
68609;SHT31;55581;46.718;7.690;2022-11-20T08:11:25;5.81;77.52
68609;SHT31;55581;46.718;7.690;2022-11-20T08:14:09;5.92;77.66
68609;SHT31;55581;46.718;7.690;2022-11-20T08:16:48;6.12;76.77
68609;SHT31;55581;46.718;7.690;2022-11-20T08:19:16;6.22;75.38
68609;SHT31;55581;46.718;7.690;2022-11-20T08:21:41;6.30;74.96
68609;SHT31;55581;46.718;7.690;2022-11-20T08:24:08;6.41;74.93
68609;SHT31;55581;46.718;7.690;2022-11-20T08:26:35;6.56;75.08
68609;SHT31;55581;46.718;7.690;2022-11-20T08:29:00;6.67;74.45
68609;SHT31;55581;46.718;7.690;2022-11-20T08:31:28;6.84;74.25
68609;SHT31;55581;46.718;7.690;2022-11-20T08:33:54;6.85;72.12
68609;SHT31;55581;46.718;7.690;2022-11-20T08:36:20;6.88;69.90
68609;SHT31;55581;46.718;7.690;2022-11-20T08:38:50;6.96;69.53
68609;SHT31;55581;46.718;7.690;2022-11-20T08:41:16;6.88;69.48
68609;SHT31;55581;46.718;7.690;2022-11-20T08:43:59;7.13;68.90
68609;SHT31;55581;46.718;7.690;2022-11-20T08:46:26;7.24;68.26
68609;SHT31;55581;46.718;7.690;2022-11-20T08:48:54;7.43;69.10
68609;SHT31;55581;46.718;7.690;2022-11-20T08:51:21;7.59;69.19
68609;SHT31;55581;46.718;7.690;2022-11-20T08:53:49;7.79;68.53
68609;SHT31;55581;46.718;7.690;2022-11-20T08:56:16;7.74;67.70
68609;SHT31;55581;46.718;7.690;2022-11-20T08:58:41;7.64;66.60
68609;SHT31;55581;46.718;7.690;2022-11-20T09:01:07;7.68;67.51
68609;SHT31;55581;46.718;7.690;2022-11-20T09:03:33;7.64;65.43
68609;SHT31;55581;46.718;7.690;2022-11-20T09:06:06;7.78;67.14
68609;SHT31;55581;46.718;7.690;2022-11-20T09:08:33;7.74;67.36
68609;SHT31;55581;46.718;7.690;2022-11-20T09:10:59;7.77;65.87
68609;SHT31;55581;46.718;7.690;2022-11-20T09:13:26;7.66;67.60
68609;SHT31;55581;46.718;7.690;2022-11-20T09:15:59;7.68;67.57
68609;SHT31;55581;46.718;7.690;2022-11-20T09:18:26;7.73;67.72
68609;SHT31;55581;46.718;7.690;2022-11-20T09:20:51;7.75;67.17
68609;SHT31;55581;46.718;7.690;2022-11-20T09:23:20;7.68;67.14
68609;SHT31;55581;46.718;7.690;2022-11-20T09:25:48;7.71;68.31
68609;SHT31;55581;46.718;7.690;2022-11-20T09:28:13;7.74;67.10
68609;SHT31;55581;46.718;7.690;2022-11-20T09:30:38;7.81;65.24
68609;SHT31;55581;46.718;7.690;2022-11-20T09:33:05;7.91;65.05
68609;SHT31;55581;46.718;7.690;2022-11-20T09:35:33;7.85;66.50
68609;SHT31;55581;46.718;7.690;2022-11-20T09:38:04;7.84;68.01
68609;SHT31;55581;46.718;7.690;2022-11-20T09:40:30;7.87;68.77
68609;SHT31;55581;46.718;7.690;2022-11-20T09:54:17;7.77;72.63
68609;SHT31;55581;46.718;7.690;2022-11-20T09:57:13;7.95;71.78
68609;SHT31;55581;46.718;7.690;2022-11-20T09:59:45;7.89;72.20
68609;SHT31;55581;46.718;7.690;2022-11-20T10:05:11;8.06;70.99
68609;SHT31;55581;46.718;7.690;2022-11-20T10:07:44;8.13;70.99
68609;SHT31;55581;46.718;7.690;2022-11-20T10:10:17;8.01;70.14
68609;SHT31;55581;46.718;7.690;2022-11-20T10:29:45;9.01;66.40
68609;SHT31;55581;46.718;7.690;2022-11-20T10:32:27;9.12;66.53
68609;SHT31;55581;46.718;7.690;2022-11-20T10:35:01;9.09;67.67
68609;SHT31;55581;46.718;7.690;2022-11-20T10:37:32;9.15;66.68
68609;SHT31;55581;46.718;7.690;2022-11-20T10:40:20;9.07;66.52
68609;SHT31;55581;46.718;7.690;2022-11-20T10:43:03;9.25;67.38
68609;SHT31;55581;46.718;7.690;2022-11-20T10:45:40;9.29;65.78
68609;SHT31;55581;46.718;7.690;2022-11-20T10:48:21;9.08;65.99
68609;SHT31;55581;46.718;7.690;2022-11-20T10:50:57;9.23;66.00
68609;SHT31;55581;46.718;7.690;2022-11-20T10:56:22;9.53;65.83
68609;SHT31;55581;46.718;7.690;2022-11-20T11:01:30;9.65;64.81
68609;SHT31;55581;46.718;7.690;2022-11-20T11:03:56;9.70;64.25
68609;SHT31;55581;46.718;7.690;2022-11-20T11:06:34;9.73;62.52
68609;SHT31;55581;46.718;7.690;2022-11-20T11:09:04;9.40;62.23
68609;SHT31;55581;46.718;7.690;2022-11-20T11:11:38;9.46;62.76
68609;SHT31;55581;46.718;7.690;2022-11-20T11:14:08;9.46;63.75
68609;SHT31;55581;46.718;7.690;2022-11-20T11:16:49;9.46;63.41
68609;SHT31;55581;46.718;7.690;2022-11-20T11:19:15;9.60;63.21
68609;SHT31;55581;46.718;7.690;2022-11-20T11:21:47;9.46;63.81
68609;SHT31;55581;46.718;7.690;2022-11-20T11:24:26;9.32;62.42
68609;SHT31;55581;46.718;7.690;2022-11-20T11:27:00;9.07;63.26
68609;SHT31;55581;46.718;7.690;2022-11-20T11:29:31;9.36;62.91
68609;SHT31;55581;46.718;7.690;2022-11-20T11:32:27;9.35;62.18
68609;SHT31;55581;46.718;7.690;2022-11-20T11:35:04;9.42;63.05
68609;SHT31;55581;46.718;7.690;2022-11-20T11:37:37;9.58;61.43
68609;SHT31;55581;46.718;7.690;2022-11-20T11:40:09;9.63;62.65
68609;SHT31;55581;46.718;7.690;2022-11-20T11:42:44;9.71;63.32
68609;SHT31;55581;46.718;7.690;2022-11-20T11:45:15;9.63;61.33
68609;SHT31;55581;46.718;7.690;2022-11-20T11:55:45;9.71;63.23
68609;SHT31;55581;46.718;7.690;2022-11-20T12:01:04;9.87;62.81
68609;SHT31;55581;46.718;7.690;2022-11-20T12:03:40;9.65;63.21
68609;SHT31;55581;46.718;7.690;2022-11-20T12:06:14;9.54;62.80
68609;SHT31;55581;46.718;7.690;2022-11-20T12:08:57;9.73;63.01
68609;SHT31;55581;46.718;7.690;2022-11-20T12:11:33;9.90;62.15
68609;SHT31;55581;46.718;7.690;2022-11-20T12:14:21;9.99;61.83
68609;SHT31;55581;46.718;7.690;2022-11-20T12:16:52;9.99;61.72
68609;SHT31;55581;46.718;7.690;2022-11-20T12:19:18;9.84;62.01
68609;SHT31;55581;46.718;7.690;2022-11-20T12:52:55;10.15;61.27
68609;SHT31;55581;46.718;7.690;2022-11-20T12:55:21;10.23;61.52
68609;SHT31;55581;46.718;7.690;2022-11-20T12:58:05;9.97;60.92
68609;SHT31;55581;46.718;7.690;2022-11-20T13:00:32;10.15;62.30
68609;SHT31;55581;46.718;7.690;2022-11-20T13:08:31;10.03;61.57
68609;SHT31;55581;46.718;7.690;2022-11-20T13:19:09;10.03;61.65
68609;SHT31;55581;46.718;7.690;2022-11-20T13:21:43;9.69;60.95
68609;SHT31;55581;46.718;7.690;2022-11-20T13:24:25;9.82;61.89
68609;SHT31;55581;46.718;7.690;2022-11-20T13:27:16;9.82;61.35
68609;SHT31;55581;46.718;7.690;2022-11-20T13:29:58;9.85;61.74
68609;SHT31;55581;46.718;7.690;2022-11-20T13:32:26;9.88;61.47
68609;SHT31;55581;46.718;7.690;2022-11-20T13:34:59;9.87;62.31
68609;SHT31;55581;46.718;7.690;2022-11-20T13:37:35;9.95;62.80
68609;SHT31;55581;46.718;7.690;2022-11-20T13:42:37;9.94;63.21
68609;SHT31;55581;46.718;7.690;2022-11-20T13:45:09;10.02;63.55
68609;SHT31;55581;46.718;7.690;2022-11-20T13:47:35;9.99;63.47
68609;SHT31;55581;46.718;7.690;2022-11-20T13:50:03;9.77;63.28
68609;SHT31;55581;46.718;7.690;2022-11-20T13:52:47;9.58;63.39
68609;SHT31;55581;46.718;7.690;2022-11-20T14:00:33;9.43;63.83
68609;SHT31;55581;46.718;7.690;2022-11-20T14:03:20;9.36;64.01
68609;SHT31;55581;46.718;7.690;2022-11-20T14:05:57;9.25;64.33
68609;SHT31;55581;46.718;7.690;2022-11-20T14:08:44;9.32;64.73
68609;SHT31;55581;46.718;7.690;2022-11-20T14:11:22;9.39;64.93
68609;SHT31;55581;46.718;7.690;2022-11-20T14:16:21;9.40;65.37
68609;SHT31;55581;46.718;7.690;2022-11-20T14:18:49;9.43;65.18
68609;SHT31;55581;46.718;7.690;2022-11-20T14:21:26;9.48;64.87
68609;SHT31;55581;46.718;7.690;2022-11-20T14:23:53;9.40;63.16
68609;SHT31;55581;46.718;7.690;2022-11-20T14:26:19;9.43;63.11
68609;SHT31;55581;46.718;7.690;2022-11-20T14:28:49;9.32;65.08
68609;SHT31;55581;46.718;7.690;2022-11-20T14:31:26;9.29;64.83
68609;SHT31;55581;46.718;7.690;2022-11-20T14:33:53;9.27;65.31
68609;SHT31;55581;46.718;7.690;2022-11-20T14:36:24;9.33;65.27
68609;SHT31;55581;46.718;7.690;2022-11-20T14:38:51;9.25;64.25
68609;SHT31;55581;46.718;7.690;2022-11-20T14:41:26;9.19;65.14
68609;SHT31;55581;46.718;7.690;2022-11-20T14:43:59;9.30;64.93
68609;SHT31;55581;46.718;7.690;2022-11-20T14:46:25;9.18;65.23
68609;SHT31;55581;46.718;7.690;2022-11-20T14:48:56;9.07;66.29
68609;SHT31;55581;46.718;7.690;2022-11-20T14:53:54;8.98;66.02
68609;SHT31;55581;46.718;7.690;2022-11-20T14:56:23;8.92;66.16
68609;SHT31;55581;46.718;7.690;2022-11-20T14:58:58;8.80;66.78
68609;SHT31;55581;46.718;7.690;2022-11-20T15:01:30;8.71;66.47
68609;SHT31;55581;46.718;7.690;2022-11-20T15:04:08;8.54;67.70
68609;SHT31;55581;46.718;7.690;2022-11-20T15:06:35;8.61;66.13
68609;SHT31;55581;46.718;7.690;2022-11-20T15:09:04;8.42;67.75
68609;SHT31;55581;46.718;7.690;2022-11-20T15:11:32;8.36;68.23
68609;SHT31;55581;46.718;7.690;2022-11-20T15:14:06;8.22;70.15
68609;SHT31;55581;46.718;7.690;2022-11-20T15:16:32;8.15;69.63
68609;SHT31;55581;46.718;7.690;2022-11-20T15:19:02;8.02;70.21
68609;SHT31;55581;46.718;7.690;2022-11-20T15:21:27;7.97;71.40
68609;SHT31;55581;46.718;7.690;2022-11-20T15:23:57;7.98;71.30
68609;SHT31;55581;46.718;7.690;2022-11-20T15:26:25;7.88;71.81
68609;SHT31;55581;46.718;7.690;2022-11-20T15:28:51;7.87;71.92
68609;SHT31;55581;46.718;7.690;2022-11-20T15:31:19;7.74;72.03
68609;SHT31;55581;46.718;7.690;2022-11-20T15:33:45;7.64;72.41
68609;SHT31;55581;46.718;7.690;2022-11-20T15:36:10;7.56;73.42
68609;SHT31;55581;46.718;7.690;2022-11-20T15:38:36;7.47;73.10
68609;SHT31;55581;46.718;7.690;2022-11-20T15:41:02;7.42;72.60
68609;SHT31;55581;46.718;7.690;2022-11-20T15:43:30;7.29;74.83
68609;SHT31;55581;46.718;7.690;2022-11-20T15:45:59;7.18;74.02
68609;SHT31;55581;46.718;7.690;2022-11-20T15:48:29;7.15;73.82
68609;SHT31;55581;46.718;7.690;2022-11-20T15:50:59;7.06;74.49
68609;SHT31;55581;46.718;7.690;2022-11-20T15:53:27;7.04;75.92
68609;SHT31;55581;46.718;7.690;2022-11-20T15:55:53;7.08;76.23
68609;SHT31;55581;46.718;7.690;2022-11-20T15:58:19;7.09;74.99
68609;SHT31;55581;46.718;7.690;2022-11-20T16:00:44;7.13;75.69
68609;SHT31;55581;46.718;7.690;2022-11-20T16:03:15;7.18;76.24
68609;SHT31;55581;46.718;7.690;2022-11-20T16:05:41;7.12;75.42
68609;SHT31;55581;46.718;7.690;2022-11-20T16:08:08;7.15;75.23
68609;SHT31;55581;46.718;7.690;2022-11-20T16:10:35;7.18;75.19
68609;SHT31;55581;46.718;7.690;2022-11-20T16:13:01;7.20;75.22
68609;SHT31;55581;46.718;7.690;2022-11-20T16:16:09;7.34;73.51
68609;SHT31;55581;46.718;7.690;2022-11-20T16:18:35;7.42;72.65
68609;SHT31;55581;46.718;7.690;2022-11-20T16:21:10;7.32;73.22
68609;SHT31;55581;46.718;7.690;2022-11-20T16:23:35;7.32;72.20
68609;SHT31;55581;46.718;7.690;2022-11-20T16:26:14;7.26;72.74
68609;SHT31;55581;46.718;7.690;2022-11-20T16:28:43;7.29;72.47
68609;SHT31;55581;46.718;7.690;2022-11-20T16:31:12;7.33;71.83
68609;SHT31;55581;46.718;7.690;2022-11-20T16:33:41;7.39;70.97
68609;SHT31;55581;46.718;7.690;2022-11-20T16:36:11;7.34;71.24
68609;SHT31;55581;46.718;7.690;2022-11-20T16:38:36;7.26;71.43
68609;SHT31;55581;46.718;7.690;2022-11-20T16:41:04;7.20;74.16
68609;SHT31;55581;46.718;7.690;2022-11-20T16:43:32;7.18;73.09
68609;SHT31;55581;46.718;7.690;2022-11-20T16:46:03;7.13;75.59
68609;SHT31;55581;46.718;7.690;2022-11-20T16:48:29;7.13;75.64
68609;SHT31;55581;46.718;7.690;2022-11-20T16:50:54;7.08;74.56
68609;SHT31;55581;46.718;7.690;2022-11-20T16:53:23;7.05;74.15
68609;SHT31;55581;46.718;7.690;2022-11-20T16:55:48;7.04;73.71
68609;SHT31;55581;46.718;7.690;2022-11-20T16:58:14;6.99;71.64
68609;SHT31;55581;46.718;7.690;2022-11-20T17:00:40;7.01;73.39
68609;SHT31;55581;46.718;7.690;2022-11-20T17:03:05;7.01;73.28
68609;SHT31;55581;46.718;7.690;2022-11-20T17:05:32;6.99;74.43
68609;SHT31;55581;46.718;7.690;2022-11-20T17:07:58;7.08;75.35
68609;SHT31;55581;46.718;7.690;2022-11-20T17:10:24;7.05;75.72
68609;SHT31;55581;46.718;7.690;2022-11-20T17:12:49;6.98;76.38
68609;SHT31;55581;46.718;7.690;2022-11-20T17:15:14;6.94;76.40
68609;SHT31;55581;46.718;7.690;2022-11-20T17:17:42;6.96;75.74
68609;SHT31;55581;46.718;7.690;2022-11-20T17:20:10;6.96;74.86
68609;SHT31;55581;46.718;7.690;2022-11-20T17:22:36;6.98;75.42
68609;SHT31;55581;46.718;7.690;2022-11-20T17:25:05;6.98;75.68
68609;SHT31;55581;46.718;7.690;2022-11-20T17:27:30;6.92;75.95
68609;SHT31;55581;46.718;7.690;2022-11-20T17:29:55;6.95;76.99
68609;SHT31;55581;46.718;7.690;2022-11-20T17:32:23;6.95;76.66
68609;SHT31;55581;46.718;7.690;2022-11-20T17:34:49;6.95;77.18
68609;SHT31;55581;46.718;7.690;2022-11-20T17:37:15;6.98;77.25
68609;SHT31;55581;46.718;7.690;2022-11-20T17:39:40;7.02;76.72
68609;SHT31;55581;46.718;7.690;2022-11-20T17:42:05;6.98;76.38
68609;SHT31;55581;46.718;7.690;2022-11-20T17:44:49;6.98;77.39